createdAt,value
2019-03-26T00:00:53.827Z,101922
2019-03-26T00:06:16.502Z,101919
2019-03-26T00:11:39.192Z,101922
2019-03-26T00:17:01.892Z,101928
2019-03-26T00:22:24.691Z,101932
2019-03-26T00:27:47.426Z,101944
2019-03-26T00:33:10.084Z,101937
2019-03-26T00:38:32.814Z,101937
2019-03-26T00:43:55.516Z,101946
2019-03-26T00:49:18.212Z,101952
2019-03-26T00:54:40.846Z,101954
2019-03-26T01:00:03.523Z,101960
2019-03-26T01:05:26.242Z,101961
2019-03-26T01:10:49.182Z,101966
2019-03-26T01:16:12.157Z,101968
2019-03-26T01:21:35.099Z,101971
2019-03-26T01:26:57.818Z,101965
2019-03-26T01:32:20.534Z,101965
2019-03-26T01:37:43.246Z,101975
2019-03-26T01:43:05.983Z,101984
2019-03-26T01:48:30.509Z,101981
2019-03-26T01:53:53.213Z,101975
2019-03-26T01:59:16.168Z,101977
2019-03-26T02:04:38.850Z,101978
2019-03-26T02:10:01.502Z,101982
2019-03-26T02:15:24.470Z,101973
2019-03-26T02:20:47.875Z,101975
2019-03-26T02:26:10.521Z,101979
2019-03-26T02:31:33.169Z,101971
2019-03-26T02:36:55.850Z,101970
2019-03-26T02:42:18.637Z,101967
2019-03-26T02:47:41.282Z,101967
2019-03-26T02:53:03.983Z,101974
2019-03-26T02:58:26.627Z,101977
2019-03-26T03:03:49.275Z,101979
2019-03-26T03:09:11.957Z,101977
2019-03-26T03:14:34.611Z,101980
2019-03-26T03:19:57.338Z,101989
2019-03-26T03:25:20.013Z,101977
2019-03-26T03:30:42.751Z,101972
2019-03-26T03:36:05.422Z,101964
2019-03-26T03:41:28.299Z,101967
2019-03-26T03:46:50.939Z,101973
2019-03-26T03:52:13.639Z,101975
2019-03-26T03:57:36.324Z,101985
2019-03-26T04:02:59.651Z,101988
2019-03-26T04:08:22.286Z,101970
2019-03-26T04:13:44.937Z,101974
2019-03-26T04:19:07.594Z,101979
2019-03-26T04:24:30.278Z,101975
2019-03-26T04:29:52.973Z,101977
2019-03-26T04:35:15.695Z,101966
2019-03-26T04:40:38.373Z,101973
2019-03-26T04:46:02.194Z,101978
2019-03-26T04:51:24.896Z,101967
2019-03-26T04:56:47.602Z,101964
2019-03-26T05:02:11.234Z,101962
2019-03-26T05:07:33.863Z,101969
2019-03-26T05:12:56.592Z,101967
2019-03-26T05:18:19.394Z,101961
2019-03-26T05:23:44.060Z,101961
2019-03-26T05:29:06.857Z,101964
2019-03-26T05:34:29.596Z,101967
2019-03-26T05:39:52.427Z,101953
2019-03-26T05:45:15.134Z,101935
2019-03-26T05:50:37.912Z,101930
2019-03-26T05:56:00.584Z,101937
2019-03-26T06:01:23.277Z,101944
2019-03-26T06:06:45.948Z,101943
2019-03-26T06:12:08.725Z,101947
2019-03-26T06:17:31.531Z,101955
2019-03-26T06:22:54.192Z,101958
2019-03-26T06:28:16.891Z,101977
2019-03-26T06:33:39.624Z,101989
2019-03-26T06:39:02.341Z,101977
2019-03-26T06:44:25.051Z,101993
2019-03-26T06:49:47.737Z,101984
2019-03-26T06:55:10.363Z,101989
2019-03-26T07:00:33.083Z,101991
2019-03-26T07:05:55.980Z,102002
2019-03-26T07:11:18.709Z,102000
2019-03-26T07:16:41.437Z,102000
2019-03-26T07:22:04.099Z,102000
2019-03-26T07:27:26.740Z,102002
2019-03-26T07:32:49.510Z,102001
2019-03-26T07:38:12.093Z,101993
2019-03-26T07:43:36.619Z,102003
2019-03-26T07:48:59.281Z,101999
2019-03-26T07:54:21.971Z,101993
2019-03-26T07:59:44.710Z,101999
2019-03-26T08:05:07.396Z,102013
2019-03-26T08:10:30.780Z,102007
2019-03-26T08:15:53.488Z,102004
2019-03-26T08:21:16.152Z,101995
2019-03-26T08:26:38.881Z,102005
2019-03-26T08:32:01.546Z,102006
2019-03-26T08:37:24.314Z,102014
2019-03-26T08:42:47.006Z,102027
2019-03-26T08:48:10.691Z,102025
2019-03-26T08:53:33.463Z,102029
2019-03-26T08:58:56.156Z,102031
2019-03-26T09:04:18.831Z,102038
2019-03-26T09:09:41.546Z,102040
2019-03-26T09:15:04.492Z,102041
2019-03-26T09:20:27.318Z,102037
2019-03-26T09:25:50.115Z,102039
2019-03-26T09:31:12.893Z,102045
2019-03-26T09:36:35.566Z,102046
2019-03-26T09:41:58.251Z,102035
2019-03-26T09:47:21.005Z,102028
2019-03-26T09:52:44.539Z,102018
2019-03-26T09:58:07.205Z,102015
2019-03-26T10:03:30.016Z,102008
2019-03-26T10:08:53.054Z,102005
2019-03-26T10:14:15.475Z,101998
2019-03-26T10:19:38.180Z,101995
2019-03-26T10:25:00.954Z,101998
2019-03-26T10:30:24.893Z,102002
2019-03-26T10:35:46.339Z,101998
2019-03-26T10:41:09.035Z,101986
2019-03-26T10:46:31.680Z,101981
2019-03-26T10:51:54.362Z,101975
2019-03-26T10:57:17.996Z,101976
2019-03-26T11:02:40.663Z,101979
2019-03-26T11:08:03.331Z,101973
2019-03-26T11:13:26.319Z,101980
2019-03-26T11:18:49.182Z,101983
2019-03-26T11:24:11.956Z,101985
2019-03-26T11:29:34.780Z,101988
2019-03-26T11:34:57.677Z,101977
2019-03-26T11:40:20.359Z,101977
2019-03-26T11:45:43.271Z,101985
2019-03-26T11:51:06.671Z,101977
2019-03-26T11:56:29.461Z,101972
2019-03-26T12:01:52.726Z,101968
2019-03-26T12:07:14.919Z,101961
2019-03-26T12:12:37.960Z,101972
2019-03-26T12:18:01.194Z,101970
2019-03-26T12:23:24.709Z,101967
2019-03-26T12:28:47.439Z,101958
2019-03-26T12:34:10.216Z,101958
2019-03-26T12:39:32.969Z,101957
2019-03-26T12:44:55.677Z,101953
2019-03-26T12:50:18.336Z,101959
2019-03-26T12:55:41.006Z,101962
2019-03-26T13:01:03.683Z,101962
2019-03-26T13:06:26.406Z,101961
2019-03-26T13:11:49.655Z,101958
2019-03-26T13:17:13.118Z,101951
2019-03-26T13:22:35.890Z,101956
2019-03-26T13:27:58.607Z,101965
2019-03-26T13:33:21.267Z,101964
2019-03-26T13:38:44.212Z,101965
2019-03-26T13:44:07.041Z,101965
2019-03-26T13:49:30.340Z,101969
2019-03-26T13:54:52.954Z,101968
2019-03-26T14:00:15.683Z,101965
2019-03-26T14:05:38.317Z,101962
2019-03-26T14:11:00.979Z,101960
2019-03-26T14:16:23.649Z,101963
2019-03-26T14:21:46.460Z,101969
2019-03-26T14:27:11.236Z,101957
2019-03-26T14:32:33.902Z,101960
2019-03-26T14:37:56.841Z,101953
2019-03-26T14:43:19.488Z,101953
2019-03-26T14:48:42.122Z,101965
2019-03-26T14:54:04.759Z,101960
2019-03-26T14:59:27.433Z,101958
2019-03-26T15:04:50.165Z,101953
2019-03-26T15:10:12.799Z,101949
2019-03-26T15:15:36.658Z,101964
2019-03-26T15:20:58.386Z,101966
2019-03-26T15:26:21.155Z,101970
2019-03-26T15:31:44.068Z,101974
2019-03-26T15:37:06.704Z,101976
2019-03-26T15:42:29.383Z,101981
2019-03-26T15:47:52.680Z,101980
2019-03-26T15:53:15.344Z,101978
2019-03-26T15:58:37.991Z,101972
2019-03-26T16:04:00.661Z,101970
2019-03-26T16:09:23.378Z,101971
2019-03-26T16:14:45.946Z,101968
2019-03-26T16:20:08.638Z,101971
2019-03-26T16:25:31.531Z,101963
2019-03-26T16:30:54.261Z,101965
2019-03-26T16:36:17.018Z,101965
2019-03-26T16:41:48.685Z,101974
2019-03-26T16:47:05.304Z,101981
2019-03-26T16:52:28.018Z,101982
2019-03-26T16:57:50.665Z,101977
2019-03-26T17:03:13.332Z,101977
2019-03-26T17:08:37.030Z,101974
2019-03-26T17:14:01.595Z,101979
2019-03-26T17:19:24.308Z,101976
2019-03-26T17:24:46.941Z,101984
2019-03-26T17:30:09.643Z,101975
2019-03-26T17:35:32.595Z,101982
2019-03-26T17:40:56.252Z,101972
2019-03-26T17:46:19.054Z,101979
2019-03-26T17:51:41.832Z,101978
2019-03-26T17:57:04.582Z,101987
2019-03-26T18:02:27.334Z,101989
2019-03-26T18:07:50.019Z,101989
2019-03-26T18:13:12.839Z,101994
2019-03-26T18:18:35.854Z,101996
2019-03-26T18:23:58.614Z,102003
2019-03-26T18:29:21.344Z,102011
2019-03-26T18:34:44.222Z,102016
2019-03-26T18:40:06.993Z,102023
2019-03-26T18:45:29.712Z,102040
2019-03-26T18:50:52.501Z,102052
2019-03-26T18:56:15.813Z,102057
2019-03-26T19:01:38.481Z,102060
2019-03-26T19:07:01.204Z,102060
2019-03-26T19:12:25.029Z,102071
2019-03-26T19:17:48.013Z,102070
2019-03-26T19:23:10.755Z,102079
2019-03-26T19:28:33.415Z,102084
2019-03-26T19:33:57.663Z,102088
2019-03-26T19:39:20.931Z,102079
2019-03-26T19:44:43.797Z,102084
2019-03-26T19:50:06.957Z,102083
2019-03-26T19:55:28.860Z,102085
2019-03-26T20:00:54.504Z,102081
2019-03-26T20:06:17.504Z,102087
2019-03-26T20:11:40.767Z,102079
2019-03-26T20:17:03.530Z,102085
2019-03-26T20:22:26.587Z,102094
2019-03-26T20:27:49.531Z,102098
2019-03-26T20:33:12.216Z,102102
2019-03-26T20:38:34.948Z,102107
2019-03-26T20:43:58.614Z,102108
2019-03-26T20:49:21.359Z,102105
2019-03-26T20:54:44.230Z,102114
2019-03-26T21:00:06.910Z,102115
2019-03-26T21:05:29.930Z,102121
2019-03-26T21:10:52.723Z,102129
2019-03-26T21:16:15.437Z,102129
2019-03-26T21:21:37.386Z,102133
2019-03-26T21:27:00.037Z,102139
2019-03-26T21:32:22.951Z,102136
2019-03-26T21:37:45.683Z,102136
2019-03-26T21:43:08.556Z,102141
2019-03-26T21:48:31.272Z,102136
2019-03-26T21:53:53.965Z,102131
2019-03-26T21:59:16.606Z,102123
2019-03-26T22:04:39.352Z,102121
2019-03-26T22:10:02.017Z,102124
2019-03-26T22:15:24.713Z,102125
2019-03-26T22:20:48.147Z,102131
2019-03-26T22:26:10.909Z,102130
2019-03-26T22:31:33.532Z,102137
2019-03-26T22:36:57.284Z,102129
2019-03-26T22:42:19.967Z,102127
2019-03-26T22:47:42.650Z,102127
2019-03-26T22:53:06.201Z,102126
2019-03-26T22:58:28.899Z,102128
2019-03-26T23:03:52.228Z,102141
2019-03-26T23:09:14.873Z,102144
2019-03-26T23:14:44.726Z,102148
2019-03-26T23:20:01.215Z,102149
2019-03-26T23:25:24.654Z,102148
2019-03-26T23:30:47.400Z,102152
2019-03-26T23:36:10.109Z,102147
2019-03-26T23:41:33.713Z,102150
2019-03-26T23:46:57.482Z,102151
2019-03-26T23:52:20.158Z,102151
2019-03-26T23:57:42.827Z,102151
